createdAt,value
2022-08-20T00:02:14.668Z,21.48
2022-08-20T00:04:42.644Z,21.55
2022-08-20T00:07:10.330Z,21.63
2022-08-20T00:09:38.127Z,21.59
2022-08-20T00:12:08.389Z,21.60
2022-08-20T00:14:38.033Z,21.60
2022-08-20T00:17:07.180Z,21.60
2022-08-20T00:19:34.942Z,21.54
2022-08-20T00:22:03.743Z,21.54
2022-08-20T00:24:31.459Z,21.45
2022-08-20T00:26:59.081Z,21.34
2022-08-20T00:29:26.836Z,21.30
2022-08-20T00:31:54.440Z,21.28
2022-08-20T00:34:22.181Z,21.25
2022-08-20T00:36:49.761Z,21.23
2022-08-20T00:39:17.419Z,21.16
2022-08-20T00:41:46.009Z,21.08
2022-08-20T00:44:18.007Z,21.06
2022-08-20T00:46:47.036Z,21.04
2022-08-20T00:49:19.234Z,21.03
2022-08-20T00:51:54.676Z,20.96
2022-08-20T00:54:34.072Z,20.91
2022-08-20T00:57:07.789Z,20.92
2022-08-20T00:59:40.054Z,20.85
2022-08-20T01:02:15.266Z,20.85
2022-08-20T01:04:55.697Z,20.85
2022-08-20T01:07:36.218Z,20.76
2022-08-20T01:10:13.215Z,20.68
2022-08-20T01:12:44.531Z,20.69
2022-08-20T01:15:17.946Z,20.72
2022-08-20T01:17:52.945Z,20.72
2022-08-20T01:20:26.175Z,20.63
2022-08-20T01:23:21.825Z,20.61
2022-08-20T01:25:57.448Z,20.54
2022-08-20T01:28:30.152Z,20.51
2022-08-20T01:30:58.053Z,20.43
2022-08-20T01:33:26.257Z,20.43
2022-08-20T01:35:54.887Z,20.44
2022-08-20T01:38:23.020Z,20.47
2022-08-20T01:41:15.326Z,20.43
2022-08-20T01:43:45.917Z,20.43
2022-08-20T01:46:17.040Z,20.36
2022-08-20T01:48:47.527Z,20.34
2022-08-20T01:51:23.820Z,20.30
2022-08-20T01:53:54.053Z,20.30
2022-08-20T01:56:25.875Z,20.29
2022-08-20T01:58:58.928Z,20.36
2022-08-20T02:01:34.623Z,20.29
2022-08-20T02:04:17.152Z,20.22
2022-08-20T02:06:57.125Z,20.11
2022-08-20T02:09:32.523Z,20.07
2022-08-20T02:12:01.248Z,20.04
2022-08-20T02:14:29.773Z,20.03
2022-08-20T02:17:00.783Z,20.01
2022-08-20T02:19:50.996Z,20.00
2022-08-20T02:22:33.704Z,19.99
2022-08-20T02:25:01.776Z,19.92
2022-08-20T02:27:31.227Z,19.91
2022-08-20T02:30:00.949Z,19.91
2022-08-20T02:32:34.140Z,19.88
2022-08-20T02:35:08.632Z,19.89
2022-08-20T02:37:37.913Z,19.84
2022-08-20T02:40:08.171Z,19.84
2022-08-20T02:42:36.708Z,19.92
2022-08-20T02:45:06.306Z,19.91
2022-08-20T02:47:35.052Z,19.80
2022-08-20T02:50:03.707Z,19.76
2022-08-20T02:52:35.635Z,19.85
2022-08-20T02:55:03.852Z,19.78
2022-08-20T02:57:32.626Z,19.77
2022-08-20T03:00:01.614Z,19.70
2022-08-20T03:02:29.935Z,19.67
2022-08-20T03:04:57.517Z,19.63
2022-08-20T03:07:25.562Z,19.60
2022-08-20T03:09:53.626Z,19.61
2022-08-20T03:12:21.459Z,19.59
2022-08-20T03:14:50.050Z,19.58
2022-08-20T03:17:17.830Z,19.60
2022-08-20T03:19:45.484Z,19.61
2022-08-20T03:22:13.173Z,19.66
2022-08-20T03:24:40.809Z,19.64
2022-08-20T03:27:09.297Z,19.74
2022-08-20T03:29:39.752Z,19.77
2022-08-20T03:32:07.906Z,19.73
2022-08-20T03:34:36.463Z,19.74
2022-08-20T03:37:04.524Z,19.63
2022-08-20T03:39:32.437Z,19.59
2022-08-20T03:42:00.150Z,19.61
2022-08-20T03:44:27.968Z,19.65
2022-08-20T03:46:55.619Z,19.61
2022-08-20T03:49:24.428Z,19.66
2022-08-20T03:51:58.292Z,19.68
2022-08-20T03:54:30.222Z,19.67
2022-08-20T03:57:01.243Z,19.71
2022-08-20T03:59:33.151Z,19.69
2022-08-20T04:02:01.528Z,19.72
2022-08-20T04:04:29.277Z,19.69
2022-08-20T04:06:57.367Z,19.77
2022-08-20T04:09:24.969Z,19.79
2022-08-20T04:12:00.344Z,19.79
2022-08-20T04:14:28.311Z,19.77
2022-08-20T04:16:57.072Z,19.73
2022-08-20T04:19:24.752Z,19.84
2022-08-20T04:21:52.762Z,19.84
2022-08-20T04:24:31.127Z,19.82
2022-08-20T04:27:05.091Z,19.96
2022-08-20T04:29:35.282Z,19.99
2022-08-20T04:32:06.123Z,19.97
2022-08-20T04:34:34.589Z,19.93
2022-08-20T04:37:02.755Z,19.95
2022-08-20T04:39:30.758Z,19.98
2022-08-20T04:41:58.949Z,20.04
2022-08-20T04:44:27.556Z,20.04
2022-08-20T04:46:55.356Z,20.09
2022-08-20T04:49:25.173Z,20.16
2022-08-20T04:51:54.748Z,20.27
2022-08-20T04:54:22.340Z,20.33
2022-08-20T04:56:50.066Z,20.19
2022-08-20T04:59:17.692Z,20.23
2022-08-20T05:01:45.715Z,20.22
2022-08-20T05:04:13.764Z,20.22
2022-08-20T05:06:41.822Z,20.25
2022-08-20T05:09:09.515Z,20.31
2022-08-20T05:11:37.236Z,20.30
2022-08-20T05:14:08.764Z,20.31
2022-08-20T05:16:41.435Z,20.27
2022-08-20T05:19:13.295Z,20.21
2022-08-20T05:21:41.745Z,20.22
2022-08-20T05:24:12.295Z,20.36
2022-08-20T05:26:40.857Z,20.40
2022-08-20T05:29:08.619Z,20.40
2022-08-20T05:31:37.628Z,20.38
2022-08-20T05:34:10.712Z,20.42
2022-08-20T05:36:41.976Z,20.39
2022-08-20T05:39:10.584Z,20.48
2022-08-20T05:41:39.818Z,20.56
2022-08-20T05:44:13.744Z,20.62
2022-08-20T05:46:44.365Z,20.74
2022-08-20T05:49:17.148Z,20.88
2022-08-20T05:51:45.053Z,20.95
2022-08-20T05:54:14.046Z,21.08
2022-08-20T05:56:42.092Z,21.08
2022-08-20T05:59:10.792Z,21.20
2022-08-20T06:01:40.715Z,21.30
2022-08-20T06:04:25.356Z,21.40
2022-08-20T06:06:55.666Z,21.46
2022-08-20T06:09:30.952Z,21.35
2022-08-20T06:12:04.797Z,21.51
2022-08-20T06:14:33.788Z,21.66
2022-08-20T06:17:13.334Z,21.61
2022-08-20T06:19:44.174Z,21.58
2022-08-20T06:22:18.862Z,21.69
2022-08-20T06:24:54.268Z,21.70
2022-08-20T06:27:23.030Z,21.50
2022-08-20T06:29:51.335Z,21.48
2022-08-20T06:32:31.867Z,21.70
2022-08-20T06:35:02.327Z,21.67
2022-08-20T06:37:33.177Z,21.74
2022-08-20T06:40:06.333Z,21.73
2022-08-20T06:42:34.470Z,21.76
2022-08-20T06:45:05.075Z,21.80
2022-08-20T06:47:34.191Z,21.81
2022-08-20T06:50:01.838Z,21.85
2022-08-20T06:52:52.107Z,21.91
2022-08-20T06:55:17.892Z,21.92
2022-08-20T06:57:45.597Z,22.05
2022-08-20T07:00:17.345Z,22.23
2022-08-20T07:02:47.139Z,22.35
2022-08-20T07:05:16.448Z,22.57
2022-08-20T07:07:51.198Z,22.57
2022-08-20T07:10:20.743Z,22.65
2022-08-20T07:12:50.176Z,22.84
2022-08-20T07:15:20.697Z,22.98
2022-08-20T07:17:57.528Z,23.19
2022-08-20T07:20:28.536Z,23.11
2022-08-20T07:22:56.356Z,23.14
2022-08-20T07:25:25.061Z,23.15
2022-08-20T07:27:52.755Z,23.37
2022-08-20T07:30:57.094Z,23.42
2022-08-20T07:33:28.201Z,23.48
2022-08-20T07:35:58.416Z,23.51
2022-08-20T07:38:29.434Z,23.57
2022-08-20T07:41:00.704Z,23.53
2022-08-20T07:43:29.253Z,23.68
2022-08-20T07:46:00.894Z,23.70
2022-08-20T07:48:32.441Z,23.80
2022-08-20T07:51:04.399Z,23.84
2022-08-20T07:53:36.227Z,24.16
2022-08-20T07:56:11.408Z,24.63
2022-08-20T07:58:43.347Z,24.74
2022-08-20T08:01:12.078Z,24.74
2022-08-20T08:03:49.131Z,24.83
2022-08-20T08:06:28.706Z,24.61
2022-08-20T08:09:06.434Z,24.79
2022-08-20T08:11:38.065Z,25.00
2022-08-20T08:14:08.904Z,25.27
2022-08-20T08:16:39.977Z,25.41
2022-08-20T08:19:12.071Z,25.65
2022-08-20T08:21:40.216Z,25.82
2022-08-20T08:24:08.072Z,25.92
2022-08-20T08:26:35.727Z,25.95
2022-08-20T08:29:05.407Z,26.17
2022-08-20T08:31:33.821Z,26.07
2022-08-20T08:34:01.663Z,26.02
2022-08-20T08:36:29.464Z,25.85
2022-08-20T08:38:57.135Z,25.82
2022-08-20T08:41:36.661Z,25.80
2022-08-20T08:44:04.868Z,25.96
2022-08-20T08:46:38.498Z,26.14
2022-08-20T08:49:06.959Z,26.24
2022-08-20T08:52:08.779Z,26.17
2022-08-20T08:54:39.545Z,26.12
2022-08-20T08:57:10.087Z,26.05
2022-08-20T08:59:52.509Z,26.28
2022-08-20T09:02:28.984Z,26.25
2022-08-20T09:05:02.830Z,26.40
2022-08-20T09:07:33.617Z,26.43
2022-08-20T09:10:01.697Z,26.61
2022-08-20T09:12:29.840Z,26.54
2022-08-20T09:14:57.643Z,26.62
2022-08-20T09:17:25.826Z,26.76
2022-08-20T09:19:53.533Z,26.78
2022-08-20T09:22:25.617Z,26.91
2022-08-20T09:24:53.661Z,27.13
2022-08-20T09:27:21.403Z,27.11
2022-08-20T09:29:50.335Z,27.12
2022-08-20T09:32:21.753Z,27.05
2022-08-20T09:34:56.083Z,26.90
2022-08-20T09:37:27.059Z,27.02
2022-08-20T09:39:55.483Z,27.09
2022-08-20T09:42:30.932Z,26.93
2022-08-20T09:44:59.616Z,27.23
2022-08-20T09:47:27.662Z,27.29
2022-08-20T09:49:55.353Z,27.42
2022-08-20T09:52:40.679Z,27.46
2022-08-20T09:55:24.833Z,27.37
2022-08-20T09:57:53.353Z,27.43
2022-08-20T10:00:21.440Z,27.64
2022-08-20T10:02:49.073Z,27.74
2022-08-20T10:05:16.835Z,27.67
2022-08-20T10:07:46.276Z,27.64
2022-08-20T10:10:15.903Z,27.74
2022-08-20T10:12:43.679Z,27.70
2022-08-20T10:15:11.940Z,27.86
2022-08-20T10:17:41.166Z,27.98
2022-08-20T10:20:11.410Z,27.79
2022-08-20T10:22:39.374Z,27.76
2022-08-20T10:25:07.830Z,27.88
2022-08-20T10:27:37.077Z,28.07
2022-08-20T10:30:06.516Z,28.16
2022-08-20T10:32:34.403Z,28.25
2022-08-20T10:35:02.122Z,28.37
2022-08-20T10:37:30.164Z,28.45
2022-08-20T10:40:01.488Z,28.63
2022-08-20T10:42:29.587Z,28.46
2022-08-20T10:44:57.226Z,28.60
2022-08-20T10:47:26.557Z,28.58
2022-08-20T10:49:57.205Z,28.70
2022-08-20T10:52:26.099Z,28.79
2022-08-20T10:54:54.322Z,28.81
2022-08-20T10:57:30.487Z,28.96
2022-08-20T10:59:59.394Z,29.20
2022-08-20T11:02:28.536Z,29.25
2022-08-20T11:04:56.488Z,29.53
2022-08-20T11:07:54.763Z,29.56
2022-08-20T11:10:22.714Z,29.29
2022-08-20T11:12:50.943Z,29.21
2022-08-20T11:15:18.792Z,29.30
2022-08-20T11:17:46.681Z,29.32
2022-08-20T11:20:16.915Z,29.38
2022-08-20T11:22:44.758Z,29.36
2022-08-20T11:25:13.006Z,29.33
2022-08-20T11:27:44.446Z,29.44
2022-08-20T11:30:30.898Z,29.62
2022-08-20T11:33:00.351Z,29.70
2022-08-20T11:35:49.122Z,29.69
2022-08-20T11:38:19.250Z,29.70
2022-08-20T11:40:47.116Z,29.88
2022-08-20T11:43:16.624Z,29.83
2022-08-20T11:45:47.133Z,30.08
2022-08-20T11:48:15.380Z,30.15
2022-08-20T11:50:42.959Z,30.05
2022-08-20T11:53:10.695Z,30.04
2022-08-20T11:55:39.966Z,30.03
2022-08-20T11:58:08.062Z,29.98
2022-08-20T12:00:37.225Z,29.93
2022-08-20T12:03:10.161Z,29.85
2022-08-20T12:05:44.197Z,29.85
2022-08-20T12:08:26.834Z,30.01
2022-08-20T12:11:00.269Z,29.82
2022-08-20T12:13:47.777Z,29.71
2022-08-20T12:16:20.323Z,29.70
2022-08-20T12:18:48.848Z,29.71
2022-08-20T12:21:17.381Z,29.77
2022-08-20T12:23:45.234Z,29.93
2022-08-20T12:26:13.363Z,29.87
2022-08-20T12:28:41.434Z,29.83
2022-08-20T12:31:09.254Z,29.72
2022-08-20T12:33:37.070Z,29.73
2022-08-20T12:36:04.837Z,29.80
2022-08-20T12:38:33.039Z,30.06
2022-08-20T12:41:01.359Z,30.26
2022-08-20T12:43:29.107Z,30.22
2022-08-20T12:45:56.866Z,30.20
2022-08-20T12:48:24.716Z,30.15
2022-08-20T12:50:52.891Z,30.20
2022-08-20T12:53:20.634Z,30.43
2022-08-20T12:55:48.457Z,30.42
2022-08-20T12:58:16.053Z,30.34
2022-08-20T13:00:50.294Z,30.29
2022-08-20T13:03:20.958Z,30.36
2022-08-20T13:05:51.927Z,30.28
2022-08-20T13:08:19.812Z,30.30
2022-08-20T13:10:48.257Z,30.44
2022-08-20T13:13:20.567Z,29.86
2022-08-20T13:15:51.167Z,29.23
2022-08-20T13:18:19.599Z,28.81
2022-08-20T13:20:48.127Z,28.50
2022-08-20T13:23:16.788Z,28.29
2022-08-20T13:25:44.589Z,28.17
2022-08-20T13:28:12.271Z,28.01
2022-08-20T13:30:41.462Z,27.77
2022-08-20T13:33:09.735Z,27.56
2022-08-20T13:35:37.528Z,27.34
2022-08-20T13:38:05.207Z,27.34
2022-08-20T13:40:34.838Z,26.94
2022-08-20T13:43:06.782Z,26.80
2022-08-20T13:45:36.575Z,26.61
2022-08-20T13:48:05.337Z,26.49
2022-08-20T13:50:35.988Z,26.29
2022-08-20T13:53:04.408Z,26.33
2022-08-20T13:55:39.106Z,26.42
2022-08-20T13:58:08.281Z,26.47
2022-08-20T14:00:36.870Z,26.39
2022-08-20T14:03:06.189Z,26.25
2022-08-20T14:05:34.781Z,26.24
2022-08-20T14:08:17.233Z,26.18
2022-08-20T14:10:50.373Z,26.14
2022-08-20T14:13:22.577Z,26.37
2022-08-20T14:15:51.312Z,26.30
2022-08-20T14:18:20.065Z,26.10
2022-08-20T14:20:48.001Z,25.80
2022-08-20T14:23:16.499Z,25.75
2022-08-20T14:25:49.551Z,25.73
2022-08-20T14:28:23.895Z,25.70
2022-08-20T14:30:53.082Z,25.52
2022-08-20T14:33:22.615Z,25.21
2022-08-20T14:35:50.984Z,25.05
2022-08-20T14:38:19.353Z,24.85
2022-08-20T14:40:47.439Z,24.76
2022-08-20T14:43:15.048Z,24.71
2022-08-20T14:45:42.734Z,24.69
2022-08-20T14:48:10.364Z,24.60
2022-08-20T14:50:38.385Z,24.50
2022-08-20T14:53:07.447Z,24.49
2022-08-20T14:55:37.668Z,24.48
2022-08-20T14:58:12.922Z,24.62
2022-08-20T15:00:41.706Z,24.60
2022-08-20T15:03:09.610Z,24.51
2022-08-20T15:05:39.638Z,24.49
2022-08-20T15:08:09.027Z,24.53
2022-08-20T15:10:39.349Z,24.45
2022-08-20T15:13:08.460Z,24.47
2022-08-20T15:15:37.404Z,24.38
2022-08-20T15:18:05.442Z,24.41
2022-08-20T15:20:35.171Z,24.37
2022-08-20T15:23:03.615Z,24.35
2022-08-20T15:25:36.573Z,24.36
2022-08-20T15:28:08.806Z,24.39
2022-08-20T15:30:39.210Z,24.37
2022-08-20T15:33:07.828Z,24.39
2022-08-20T15:35:36.048Z,24.29
2022-08-20T15:38:03.843Z,24.28
2022-08-20T15:40:32.923Z,24.25
2022-08-20T15:43:03.487Z,24.23
2022-08-20T15:45:32.706Z,24.26
2022-08-20T15:48:21.956Z,24.33
2022-08-20T15:51:11.973Z,24.33
2022-08-20T15:53:54.708Z,24.28
2022-08-20T15:56:37.497Z,24.24
2022-08-20T15:59:32.659Z,24.16
2022-08-20T16:02:09.771Z,24.07
2022-08-20T16:04:53.247Z,24.11
2022-08-20T16:07:31.988Z,24.14
2022-08-20T16:10:02.651Z,24.20
2022-08-20T16:12:37.092Z,24.20
2022-08-20T16:15:25.483Z,24.23
2022-08-20T16:18:05.650Z,24.16
2022-08-20T16:20:40.186Z,24.19
2022-08-20T16:23:08.873Z,24.15
2022-08-20T16:25:46.600Z,24.14
2022-08-20T16:28:25.429Z,24.19
2022-08-20T16:31:02.151Z,24.17
2022-08-20T16:33:37.103Z,24.18
2022-08-20T16:36:33.507Z,24.17
2022-08-20T16:39:04.945Z,24.19
2022-08-20T16:41:40.729Z,24.02
2022-08-20T16:44:32.830Z,24.01
2022-08-20T16:47:25.335Z,24.07
2022-08-20T16:50:02.353Z,24.05
2022-08-20T16:52:30.659Z,23.96
2022-08-20T16:54:59.043Z,23.87
2022-08-20T16:57:28.893Z,23.80
2022-08-20T17:00:16.582Z,23.89
2022-08-20T17:02:51.208Z,23.93
2022-08-20T17:05:19.882Z,23.85
2022-08-20T17:08:07.201Z,23.85
2022-08-20T17:10:52.425Z,23.85
2022-08-20T17:13:28.243Z,23.83
2022-08-20T17:16:03.268Z,23.79
2022-08-20T17:18:40.792Z,23.70
2022-08-20T17:21:23.366Z,23.73
2022-08-20T17:23:58.209Z,23.69
2022-08-20T17:26:44.067Z,23.68
2022-08-20T17:29:24.094Z,23.67
2022-08-20T17:32:09.460Z,23.59
2022-08-20T17:34:57.281Z,23.53
2022-08-20T17:37:33.418Z,23.44
2022-08-20T17:40:26.321Z,23.42
2022-08-20T17:43:01.597Z,23.43
2022-08-20T17:45:44.593Z,23.39
2022-08-20T17:48:37.946Z,23.40
2022-08-20T17:51:30.530Z,23.45
2022-08-20T17:54:07.694Z,23.45
2022-08-20T17:56:40.248Z,23.43
2022-08-20T17:59:33.564Z,23.38
2022-08-20T18:02:06.174Z,23.23
2022-08-20T18:04:34.546Z,23.19
2022-08-20T18:07:11.338Z,23.14
2022-08-20T18:09:55.661Z,23.09
2022-08-20T18:12:41.365Z,23.03
2022-08-20T18:15:24.282Z,22.93
2022-08-20T18:18:09.588Z,22.88
2022-08-20T18:20:49.154Z,22.84
2022-08-20T18:23:23.649Z,22.85
2022-08-20T18:26:09.911Z,22.83
2022-08-20T18:28:51.120Z,22.79
2022-08-20T18:31:50.796Z,22.72
2022-08-20T18:34:41.126Z,22.72
2022-08-20T18:37:14.765Z,22.73
2022-08-20T18:39:48.170Z,22.72
2022-08-20T18:42:36.656Z,22.71
2022-08-20T18:45:06.043Z,22.66
2022-08-20T18:47:33.770Z,22.67
2022-08-20T18:50:16.671Z,22.70
2022-08-20T18:53:07.277Z,22.66
2022-08-20T18:55:37.168Z,22.65
2022-08-20T18:58:11.511Z,22.61
2022-08-20T19:00:48.568Z,22.58
2022-08-20T19:03:31.315Z,22.58
2022-08-20T19:06:11.017Z,22.51
2022-08-20T19:09:00.150Z,22.48
2022-08-20T19:11:49.260Z,22.46
2022-08-20T19:14:22.354Z,22.39
2022-08-20T19:16:58.779Z,22.35
2022-08-20T19:19:30.813Z,22.28
2022-08-20T19:22:02.502Z,22.28
2022-08-20T19:24:35.579Z,22.21
2022-08-20T19:27:07.613Z,22.16
2022-08-20T19:29:39.491Z,22.12
2022-08-20T19:32:09.665Z,22.04
2022-08-20T19:34:38.233Z,22.04
2022-08-20T19:37:31.592Z,22.01
2022-08-20T19:40:08.601Z,21.97
2022-08-20T19:42:43.002Z,21.91
2022-08-20T19:45:24.004Z,21.92
2022-08-20T19:48:27.092Z,21.93
2022-08-20T19:51:04.528Z,21.95
2022-08-20T19:53:35.201Z,21.94
2022-08-20T19:56:11.082Z,21.88
2022-08-20T19:58:39.839Z,21.84
2022-08-20T20:01:19.533Z,21.87
2022-08-20T20:03:57.574Z,21.92
2022-08-20T20:06:27.460Z,21.90
2022-08-20T20:09:02.188Z,21.90
2022-08-20T20:11:35.295Z,21.79
2022-08-20T20:14:09.434Z,21.78
2022-08-20T20:16:40.468Z,21.74
2022-08-20T20:19:26.417Z,21.73
2022-08-20T20:22:26.520Z,21.79
2022-08-20T20:25:13.936Z,21.76
2022-08-20T20:27:49.807Z,21.79
2022-08-20T20:30:26.076Z,21.69
2022-08-20T20:32:55.136Z,21.67
2022-08-20T20:35:32.513Z,21.70
2022-08-20T20:38:09.445Z,21.65
2022-08-20T20:40:47.851Z,21.69
2022-08-20T20:43:30.445Z,21.61
2022-08-20T20:46:12.405Z,21.53
2022-08-20T20:48:48.605Z,21.51
2022-08-20T20:51:29.025Z,21.55
2022-08-20T20:54:03.496Z,21.46
2022-08-20T20:56:34.561Z,21.32
2022-08-20T20:59:06.592Z,21.24
2022-08-20T21:01:49.863Z,21.19
2022-08-20T21:04:23.547Z,21.15
2022-08-20T21:06:54.537Z,21.13
2022-08-20T21:09:23.920Z,21.17
2022-08-20T21:11:52.187Z,21.12
2022-08-20T21:14:20.177Z,21.08
2022-08-20T21:16:48.589Z,21.02
2022-08-20T21:19:17.731Z,20.99
2022-08-20T21:21:45.377Z,20.97
2022-08-20T21:24:13.226Z,20.93
2022-08-20T21:26:41.333Z,20.98
2022-08-20T21:29:11.398Z,20.97
2022-08-20T21:31:44.177Z,20.95
2022-08-20T21:34:13.383Z,20.98
2022-08-20T21:36:41.468Z,20.99
2022-08-20T21:39:09.671Z,20.99
2022-08-20T21:41:37.672Z,20.91
2022-08-20T21:44:29.851Z,20.86
2022-08-20T21:46:58.307Z,20.88
2022-08-20T21:49:28.435Z,20.84
2022-08-20T21:51:56.269Z,20.83
2022-08-20T21:54:25.121Z,20.83
2022-08-20T21:57:20.684Z,20.83
2022-08-20T21:59:49.610Z,20.81
2022-08-20T22:02:18.801Z,20.75
2022-08-20T22:04:46.609Z,20.71
2022-08-20T22:07:15.802Z,20.68
2022-08-20T22:09:43.915Z,20.62
2022-08-20T22:12:24.710Z,20.60
2022-08-20T22:14:53.203Z,20.61
2022-08-20T22:17:21.127Z,20.61
2022-08-20T22:19:48.960Z,20.59
2022-08-20T22:22:17.537Z,20.59
2022-08-20T22:24:46.397Z,20.53
2022-08-20T22:27:14.900Z,20.50
2022-08-20T22:29:42.699Z,20.48
2022-08-20T22:32:10.421Z,20.37
2022-08-20T22:34:40.225Z,20.41
2022-08-20T22:37:08.243Z,20.47
2022-08-20T22:39:36.875Z,20.32
2022-08-20T22:42:04.814Z,20.33
2022-08-20T22:44:33.524Z,20.35
2022-08-20T22:47:07.520Z,20.33
2022-08-20T22:49:39.872Z,20.34
2022-08-20T22:52:09.322Z,20.29
2022-08-20T22:54:38.159Z,20.19
2022-08-20T22:57:13.479Z,20.18
2022-08-20T22:59:46.424Z,20.17
2022-08-20T23:02:21.930Z,20.10
2022-08-20T23:04:49.704Z,20.03
2022-08-20T23:07:19.873Z,20.08
2022-08-20T23:09:47.714Z,20.01
2022-08-20T23:12:15.496Z,20.02
2022-08-20T23:14:43.153Z,20.03
2022-08-20T23:17:14.366Z,20.02
2022-08-20T23:19:42.840Z,20.07
2022-08-20T23:22:11.467Z,20.08
2022-08-20T23:24:39.565Z,20.02
2022-08-20T23:27:10.427Z,20.05
2022-08-20T23:29:38.152Z,20.08
2022-08-20T23:32:05.947Z,20.11
2022-08-20T23:34:33.930Z,20.13
2022-08-20T23:37:02.550Z,20.08
2022-08-20T23:39:31.465Z,20.09
2022-08-20T23:41:59.796Z,20.14
2022-08-20T23:44:28.272Z,20.02
2022-08-20T23:46:58.591Z,20.02
2022-08-20T23:49:27.732Z,19.99
2022-08-20T23:51:55.653Z,19.92
2022-08-20T23:54:23.345Z,19.91
2022-08-20T23:56:51.073Z,19.86
2022-08-20T23:59:18.664Z,19.87
